Погода Качканна неделю

Ростовская область, Россия

14 - 20 июля
  • 14июля
    Сегодня
    +19°
    +34°
    Ясно и безоблачно
    ВремяПогодаТемператураВлажностьДавлениеВетер, м/сВероятность осадков
    00:00Ясно и безоблачно+22°C36 %744 мм2.7 м/с2 %
    03:00Ясно и безоблачно+20°C41 %744 мм2.4 м/с2 %
    06:00Ясно и безоблачно+20°C42 %744 мм3.1 м/с2 %
    09:00Ясно и безоблачно+28°C30 %745 мм4.0 м/с2 %
    12:00Ясно и безоблачно+31°C24 %744 мм5.0 м/с2 %
    15:00Ясно и безоблачно+34°C20 %743 мм4.6 м/с2 %
    18:00Ясно и безоблачно+33°C22 %743 мм4.8 м/с2 %
    21:00Ясно и безоблачно+29°C31 %743 мм3.9 м/с2 %
  • 15июля
    Понедельник
    +23°
    +37°
    Ясно и безоблачно
    ВремяПогодаТемператураВлажностьДавлениеВетер, м/сВероятность осадков
    00:00Ясно и безоблачно+25°C31 %743 мм3.7 м/с2 %
    03:00Ясно и безоблачно+21°C34 %743 мм2.0 м/с2 %
    06:00Ясно и безоблачно+21°C34 %743 мм2.9 м/с2 %
    09:00Ясно и безоблачно+30°C24 %744 мм4.0 м/с2 %
    12:00Ясно и безоблачно+34°C23 %743 мм4.9 м/с2 %
    15:00Ясно и безоблачно+37°C22 %743 мм4.0 м/с2 %
    18:00Практически безоблачно+36°C22 %742 мм3.0 м/с2 %
    21:00Ясно и безоблачно+31°C33 %743 мм2.7 м/с2 %
  • 16июля
    Вторник
    +24°
    +38°
    Небольшая облачность
    ВремяПогодаТемператураВлажностьДавлениеВетер, м/сВероятность осадков
    00:00Ясно и безоблачно+28°C48 %743 мм2.8 м/с2 %
    03:00Ясно и безоблачно+25°C56 %743 мм2.6 м/с2 %
    06:00Ясно и безоблачно+25°C59 %743 мм3.4 м/с2 %
    09:00Ясно и безоблачно+33°C29 %744 мм2.1 м/с2 %
    12:00Ясно и безоблачно+36°C23 %743 мм1.7 м/с2 %
    15:00Небольшая облачность+38°C22 %743 мм3.3 м/с2 %
    18:00Небольшая облачность+37°C21 %742 мм3.5 м/с2 %
    21:00Ясно и безоблачно+32°C37 %743 мм5.7 м/с2 %
  • 17июля
    Среда
    +24°
    +38°
    Практически безоблачно
    ВремяПогодаТемператураВлажностьДавлениеВетер, м/сВероятность осадков
    00:00Ясно и безоблачно+29°C48 %743 мм3.8 м/с2 %
    03:00Ясно и безоблачно+26°C53 %743 мм4.2 м/с2 %
    06:00Ясно и безоблачно+25°C54 %744 мм3.8 м/с2 %
    09:00Ясно и безоблачно+33°C39 %744 мм4.2 м/с2 %
    12:00Практически безоблачно+36°C29 %744 мм3.8 м/с2 %
    15:00Практически безоблачно+37°C24 %743 мм3.7 м/с2 %
    18:00Небольшая облачность+37°C23 %743 мм4.5 м/с3 %
    21:00Ясно и безоблачно+32°C30 %743 мм3.4 м/с2 %
  • 18июля
    Четверг
    +23°
    +39°
    Ясно и безоблачно
    ВремяПогодаТемператураВлажностьДавлениеВетер, м/сВероятность осадков
    00:00Ясно и безоблачно+29°C35 %743 мм3.7 м/с2 %
    03:00Ясно и безоблачно+26°C41 %744 мм3.5 м/с2 %
    06:00Ясно и безоблачно+25°C45 %744 мм3.8 м/с2 %
    09:00Ясно и безоблачно+33°C30 %744 мм2.8 м/с2 %
    12:00Ясно и безоблачно+37°C25 %743 мм3.5 м/с2 %
    15:00Ясно и безоблачно+38°C22 %742 мм3.7 м/с2 %
    18:00Ясно и безоблачно+36°C24 %742 мм3.9 м/с2 %
    21:00Ясно и безоблачно+32°C31 %742 мм2.9 м/с2 %
Мы используем cookies
Соглашаюсь